sensor_id;sensor_type;location;lat;lon;timestamp;P1;durP1;ratioP1;P2;durP2;ratioP2
50126;SDS011;36024;47.974;16.398;2022-08-21T00:02:01;1.80;;;1.70;;
50126;SDS011;36024;47.974;16.398;2022-08-21T00:04:28;2.13;;;1.93;;
50126;SDS011;36024;47.974;16.398;2022-08-21T00:06:55;1.77;;;1.67;;
50126;SDS011;36024;47.974;16.398;2022-08-21T00:09:22;1.80;;;1.70;;
50126;SDS011;36024;47.974;16.398;2022-08-21T00:11:49;1.87;;;1.77;;
50126;SDS011;36024;47.974;16.398;2022-08-21T00:14:16;1.80;;;1.70;;
50126;SDS011;36024;47.974;16.398;2022-08-21T00:16:43;1.90;;;1.80;;
50126;SDS011;36024;47.974;16.398;2022-08-21T00:19:09;2.10;;;1.90;;
50126;SDS011;36024;47.974;16.398;2022-08-21T00:21:36;2.00;;;1.90;;
50126;SDS011;36024;47.974;16.398;2022-08-21T00:24:03;1.63;;;1.53;;
50126;SDS011;36024;47.974;16.398;2022-08-21T00:26:30;1.60;;;1.50;;
50126;SDS011;36024;47.974;16.398;2022-08-21T00:28:57;1.90;;;1.80;;
50126;SDS011;36024;47.974;16.398;2022-08-21T00:31:24;1.87;;;1.77;;
50126;SDS011;36024;47.974;16.398;2022-08-21T00:33:51;1.80;;;1.70;;
50126;SDS011;36024;47.974;16.398;2022-08-21T00:36:24;2.43;;;1.90;;
50126;SDS011;36024;47.974;16.398;2022-08-21T00:38:51;1.90;;;1.80;;
50126;SDS011;36024;47.974;16.398;2022-08-21T00:41:17;2.10;;;1.90;;
50126;SDS011;36024;47.974;16.398;2022-08-21T00:44:08;1.90;;;1.80;;
50126;SDS011;36024;47.974;16.398;2022-08-21T00:46:36;2.00;;;1.90;;
50126;SDS011;36024;47.974;16.398;2022-08-21T00:49:04;1.77;;;1.67;;
50126;SDS011;36024;47.974;16.398;2022-08-21T00:51:36;2.10;;;2.00;;
50126;SDS011;36024;47.974;16.398;2022-08-21T00:54:05;2.03;;;1.93;;
50126;SDS011;36024;47.974;16.398;2022-08-21T00:56:44;2.13;;;2.03;;
50126;SDS011;36024;47.974;16.398;2022-08-21T00:59:13;2.20;;;2.10;;
50126;SDS011;36024;47.974;16.398;2022-08-21T01:01:40;2.50;;;2.40;;
50126;SDS011;36024;47.974;16.398;2022-08-21T01:04:06;2.40;;;2.30;;
50126;SDS011;36024;47.974;16.398;2022-08-21T01:06:33;2.23;;;2.10;;
50126;SDS011;36024;47.974;16.398;2022-08-21T01:09:02;2.20;;;2.10;;
50126;SDS011;36024;47.974;16.398;2022-08-21T01:11:29;2.43;;;2.23;;
50126;SDS011;36024;47.974;16.398;2022-08-21T01:13:55;2.47;;;2.37;;
50126;SDS011;36024;47.974;16.398;2022-08-21T01:16:22;2.80;;;2.60;;
50126;SDS011;36024;47.974;16.398;2022-08-21T01:18:49;2.87;;;2.67;;
50126;SDS011;36024;47.974;16.398;2022-08-21T01:21:19;2.70;;;2.50;;
50126;SDS011;36024;47.974;16.398;2022-08-21T01:23:53;3.27;;;3.00;;
50126;SDS011;36024;47.974;16.398;2022-08-21T01:26:22;2.80;;;2.60;;
50126;SDS011;36024;47.974;16.398;2022-08-21T01:29:06;3.03;;;2.83;;
50126;SDS011;36024;47.974;16.398;2022-08-21T01:31:39;2.97;;;2.77;;
50126;SDS011;36024;47.974;16.398;2022-08-21T01:34:06;2.90;;;2.70;;
50126;SDS011;36024;47.974;16.398;2022-08-21T01:36:34;2.77;;;2.57;;
50126;SDS011;36024;47.974;16.398;2022-08-21T01:39:01;2.70;;;2.50;;
50126;SDS011;36024;47.974;16.398;2022-08-21T01:41:30;2.90;;;2.70;;
50126;SDS011;36024;47.974;16.398;2022-08-21T01:43:57;2.90;;;2.70;;
50126;SDS011;36024;47.974;16.398;2022-08-21T01:46:23;2.80;;;2.60;;
50126;SDS011;36024;47.974;16.398;2022-08-21T01:48:50;2.93;;;2.63;;
50126;SDS011;36024;47.974;16.398;2022-08-21T01:51:16;2.97;;;2.77;;
50126;SDS011;36024;47.974;16.398;2022-08-21T01:53:43;2.90;;;2.70;;
50126;SDS011;36024;47.974;16.398;2022-08-21T01:56:11;2.73;;;2.53;;
50126;SDS011;36024;47.974;16.398;2022-08-21T01:58:40;2.90;;;2.70;;
50126;SDS011;36024;47.974;16.398;2022-08-21T02:01:08;2.80;;;2.60;;
50126;SDS011;36024;47.974;16.398;2022-08-21T02:03:36;2.90;;;2.70;;
50126;SDS011;36024;47.974;16.398;2022-08-21T02:06:03;2.90;;;2.70;;
50126;SDS011;36024;47.974;16.398;2022-08-21T02:08:31;2.93;;;2.73;;
50126;SDS011;36024;47.974;16.398;2022-08-21T02:10:58;2.87;;;2.67;;
50126;SDS011;36024;47.974;16.398;2022-08-21T02:13:25;2.87;;;2.67;;
50126;SDS011;36024;47.974;16.398;2022-08-21T02:15:52;3.00;;;2.80;;
50126;SDS011;36024;47.974;16.398;2022-08-21T02:18:18;2.73;;;2.53;;
50126;SDS011;36024;47.974;16.398;2022-08-21T02:20:46;2.80;;;2.60;;
50126;SDS011;36024;47.974;16.398;2022-08-21T02:23:21;2.50;;;2.40;;
50126;SDS011;36024;47.974;16.398;2022-08-21T02:25:53;3.43;;;2.70;;
50126;SDS011;36024;47.974;16.398;2022-08-21T02:28:24;2.80;;;2.60;;
50126;SDS011;36024;47.974;16.398;2022-08-21T02:30:53;3.23;;;3.03;;
50126;SDS011;36024;47.974;16.398;2022-08-21T02:33:20;3.00;;;2.50;;
50126;SDS011;36024;47.974;16.398;2022-08-21T02:35:47;2.57;;;2.47;;
50126;SDS011;36024;47.974;16.398;2022-08-21T02:38:16;3.07;;;2.87;;
50126;SDS011;36024;47.974;16.398;2022-08-21T02:40:46;3.97;;;2.77;;
50126;SDS011;36024;47.974;16.398;2022-08-21T02:43:17;2.97;;;2.50;;
50126;SDS011;36024;47.974;16.398;2022-08-21T02:45:45;2.90;;;2.70;;
50126;SDS011;36024;47.974;16.398;2022-08-21T02:48:14;2.70;;;2.50;;
50126;SDS011;36024;47.974;16.398;2022-08-21T02:50:46;3.10;;;2.90;;
50126;SDS011;36024;47.974;16.398;2022-08-21T02:53:15;3.03;;;2.73;;
50126;SDS011;36024;47.974;16.398;2022-08-21T02:55:47;2.80;;;2.60;;
50126;SDS011;36024;47.974;16.398;2022-08-21T02:58:16;2.77;;;2.57;;
50126;SDS011;36024;47.974;16.398;2022-08-21T03:00:45;3.10;;;2.80;;
50126;SDS011;36024;47.974;16.398;2022-08-21T03:03:12;2.77;;;2.57;;
50126;SDS011;36024;47.974;16.398;2022-08-21T03:05:41;2.80;;;2.60;;
50126;SDS011;36024;47.974;16.398;2022-08-21T03:08:09;2.73;;;2.53;;
50126;SDS011;36024;47.974;16.398;2022-08-21T03:10:38;2.90;;;2.70;;
50126;SDS011;36024;47.974;16.398;2022-08-21T03:13:07;3.03;;;2.73;;
50126;SDS011;36024;47.974;16.398;2022-08-21T03:15:34;3.00;;;2.80;;
50126;SDS011;36024;47.974;16.398;2022-08-21T03:18:01;3.20;;;3.00;;
50126;SDS011;36024;47.974;16.398;2022-08-21T03:20:30;3.10;;;2.90;;
50126;SDS011;36024;47.974;16.398;2022-08-21T03:22:59;3.30;;;3.00;;
50126;SDS011;36024;47.974;16.398;2022-08-21T03:25:27;2.73;;;2.63;;
50126;SDS011;36024;47.974;16.398;2022-08-21T03:28:06;2.77;;;2.57;;
50126;SDS011;36024;47.974;16.398;2022-08-21T03:30:43;3.07;;;2.87;;
50126;SDS011;36024;47.974;16.398;2022-08-21T03:33:11;3.00;;;2.80;;
50126;SDS011;36024;47.974;16.398;2022-08-21T03:35:41;2.87;;;2.67;;
50126;SDS011;36024;47.974;16.398;2022-08-21T03:38:09;3.10;;;2.90;;
50126;SDS011;36024;47.974;16.398;2022-08-21T03:40:35;3.10;;;2.90;;
50126;SDS011;36024;47.974;16.398;2022-08-21T03:43:02;3.00;;;2.80;;
50126;SDS011;36024;47.974;16.398;2022-08-21T03:45:29;2.90;;;2.70;;
50126;SDS011;36024;47.974;16.398;2022-08-21T03:47:56;3.10;;;2.90;;
50126;SDS011;36024;47.974;16.398;2022-08-21T03:50:25;2.50;;;2.30;;
50126;SDS011;36024;47.974;16.398;2022-08-21T03:52:53;2.67;;;2.47;;
50126;SDS011;36024;47.974;16.398;2022-08-21T03:55:20;2.63;;;2.43;;
50126;SDS011;36024;47.974;16.398;2022-08-21T03:57:47;3.07;;;2.87;;
50126;SDS011;36024;47.974;16.398;2022-08-21T04:00:14;2.90;;;2.70;;
50126;SDS011;36024;47.974;16.398;2022-08-21T04:02:41;3.30;;;3.00;;
50126;SDS011;36024;47.974;16.398;2022-08-21T04:05:11;2.60;;;2.50;;
50126;SDS011;36024;47.974;16.398;2022-08-21T04:07:40;2.43;;;2.33;;
50126;SDS011;36024;47.974;16.398;2022-08-21T04:10:07;2.57;;;2.47;;
50126;SDS011;36024;47.974;16.398;2022-08-21T04:12:34;2.30;;;2.10;;
50126;SDS011;36024;47.974;16.398;2022-08-21T04:15:00;2.57;;;2.37;;
50126;SDS011;36024;47.974;16.398;2022-08-21T04:17:28;2.37;;;2.17;;
50126;SDS011;36024;47.974;16.398;2022-08-21T04:19:54;1.97;;;1.87;;
50126;SDS011;36024;47.974;16.398;2022-08-21T04:22:21;1.63;;;1.53;;
50126;SDS011;36024;47.974;16.398;2022-08-21T04:24:48;1.70;;;1.60;;
50126;SDS011;36024;47.974;16.398;2022-08-21T04:27:16;1.70;;;1.60;;
50126;SDS011;36024;47.974;16.398;2022-08-21T04:29:42;1.93;;;1.70;;
50126;SDS011;36024;47.974;16.398;2022-08-21T04:32:09;1.57;;;1.47;;
50126;SDS011;36024;47.974;16.398;2022-08-21T04:34:35;1.70;;;1.60;;
50126;SDS011;36024;47.974;16.398;2022-08-21T04:37:02;1.70;;;1.60;;
50126;SDS011;36024;47.974;16.398;2022-08-21T04:39:29;1.67;;;1.50;;
50126;SDS011;36024;47.974;16.398;2022-08-21T04:41:56;1.27;;;1.27;;
50126;SDS011;36024;47.974;16.398;2022-08-21T04:44:23;1.20;;;1.10;;
50126;SDS011;36024;47.974;16.398;2022-08-21T04:46:49;1.20;;;1.10;;
50126;SDS011;36024;47.974;16.398;2022-08-21T04:49:16;0.83;;;0.83;;
50126;SDS011;36024;47.974;16.398;2022-08-21T04:51:43;1.33;;;0.90;;
50126;SDS011;36024;47.974;16.398;2022-08-21T04:54:12;0.90;;;0.90;;
50126;SDS011;36024;47.974;16.398;2022-08-21T04:56:42;0.90;;;0.80;;
50126;SDS011;36024;47.974;16.398;2022-08-21T04:59:21;1.10;;;1.00;;
50126;SDS011;36024;47.974;16.398;2022-08-21T05:01:50;0.90;;;0.90;;
50126;SDS011;36024;47.974;16.398;2022-08-21T05:04:18;1.00;;;0.90;;
50126;SDS011;36024;47.974;16.398;2022-08-21T05:06:49;0.80;;;0.80;;
50126;SDS011;36024;47.974;16.398;2022-08-21T05:09:17;0.80;;;0.80;;
50126;SDS011;36024;47.974;16.398;2022-08-21T05:11:44;0.90;;;0.80;;
50126;SDS011;36024;47.974;16.398;2022-08-21T05:14:11;1.23;;;0.90;;
50126;SDS011;36024;47.974;16.398;2022-08-21T05:16:38;1.00;;;1.00;;
50126;SDS011;36024;47.974;16.398;2022-08-21T05:19:05;0.83;;;0.83;;
50126;SDS011;36024;47.974;16.398;2022-08-21T05:21:34;0.90;;;0.90;;
50126;SDS011;36024;47.974;16.398;2022-08-21T05:24:01;0.80;;;0.80;;
50126;SDS011;36024;47.974;16.398;2022-08-21T05:26:28;0.80;;;0.80;;
50126;SDS011;36024;47.974;16.398;2022-08-21T05:28:56;0.97;;;0.97;;
50126;SDS011;36024;47.974;16.398;2022-08-21T05:31:23;1.00;;;1.00;;
50126;SDS011;36024;47.974;16.398;2022-08-21T05:33:50;1.00;;;1.00;;
50126;SDS011;36024;47.974;16.398;2022-08-21T05:36:17;1.00;;;1.00;;
50126;SDS011;36024;47.974;16.398;2022-08-21T05:38:44;1.10;;;1.10;;
50126;SDS011;36024;47.974;16.398;2022-08-21T05:41:12;0.80;;;0.80;;
50126;SDS011;36024;47.974;16.398;2022-08-21T05:43:38;1.00;;;1.00;;
50126;SDS011;36024;47.974;16.398;2022-08-21T05:46:05;1.30;;;1.20;;
50126;SDS011;36024;47.974;16.398;2022-08-21T05:48:33;1.10;;;1.00;;
50126;SDS011;36024;47.974;16.398;2022-08-21T05:51:05;1.47;;;1.10;;
50126;SDS011;36024;47.974;16.398;2022-08-21T05:53:33;1.10;;;1.10;;
50126;SDS011;36024;47.974;16.398;2022-08-21T05:56:00;1.20;;;1.20;;
50126;SDS011;36024;47.974;16.398;2022-08-21T05:58:30;1.50;;;1.33;;
50126;SDS011;36024;47.974;16.398;2022-08-21T06:00:57;1.27;;;1.17;;
50126;SDS011;36024;47.974;16.398;2022-08-21T06:03:26;1.30;;;1.20;;
50126;SDS011;36024;47.974;16.398;2022-08-21T06:05:54;1.10;;;1.10;;
50126;SDS011;36024;47.974;16.398;2022-08-21T06:08:22;1.10;;;1.10;;
50126;SDS011;36024;47.974;16.398;2022-08-21T06:10:49;1.00;;;1.00;;
50126;SDS011;36024;47.974;16.398;2022-08-21T06:13:17;1.10;;;1.10;;
50126;SDS011;36024;47.974;16.398;2022-08-21T06:15:45;1.27;;;1.17;;
50126;SDS011;36024;47.974;16.398;2022-08-21T06:18:12;1.10;;;1.10;;
50126;SDS011;36024;47.974;16.398;2022-08-21T06:20:39;1.10;;;1.10;;
50126;SDS011;36024;47.974;16.398;2022-08-21T06:23:05;1.13;;;1.13;;
50126;SDS011;36024;47.974;16.398;2022-08-21T06:25:32;1.20;;;1.20;;
50126;SDS011;36024;47.974;16.398;2022-08-21T06:28:08;1.40;;;1.30;;
50126;SDS011;36024;47.974;16.398;2022-08-21T06:30:36;1.30;;;1.30;;
50126;SDS011;36024;47.974;16.398;2022-08-21T06:33:04;1.50;;;1.40;;
50126;SDS011;36024;47.974;16.398;2022-08-21T06:35:32;1.50;;;1.20;;
50126;SDS011;36024;47.974;16.398;2022-08-21T06:38:00;1.10;;;1.10;;
50126;SDS011;36024;47.974;16.398;2022-08-21T06:40:27;1.33;;;1.23;;
50126;SDS011;36024;47.974;16.398;2022-08-21T06:42:57;1.43;;;1.37;;
50126;SDS011;36024;47.974;16.398;2022-08-21T06:45:26;1.57;;;1.47;;
50126;SDS011;36024;47.974;16.398;2022-08-21T06:47:57;1.47;;;1.40;;
50126;SDS011;36024;47.974;16.398;2022-08-21T06:50:24;1.43;;;1.33;;
50126;SDS011;36024;47.974;16.398;2022-08-21T06:52:58;1.43;;;1.33;;
50126;SDS011;36024;47.974;16.398;2022-08-21T06:55:29;1.50;;;1.40;;
50126;SDS011;36024;47.974;16.398;2022-08-21T06:57:55;1.53;;;1.43;;
50126;SDS011;36024;47.974;16.398;2022-08-21T07:00:22;1.75;;;1.65;;
50126;SDS011;36024;47.974;16.398;2022-08-21T07:02:49;1.60;;;1.50;;
50126;SDS011;36024;47.974;16.398;2022-08-21T07:05:16;1.77;;;1.67;;
50126;SDS011;36024;47.974;16.398;2022-08-21T07:07:44;1.80;;;1.70;;
50126;SDS011;36024;47.974;16.398;2022-08-21T07:10:12;1.77;;;1.67;;
50126;SDS011;36024;47.974;16.398;2022-08-21T07:12:48;2.03;;;1.77;;
50126;SDS011;36024;47.974;16.398;2022-08-21T07:15:25;1.83;;;1.73;;
50126;SDS011;36024;47.974;16.398;2022-08-21T07:17:52;2.60;;;2.17;;
50126;SDS011;36024;47.974;16.398;2022-08-21T07:20:18;2.13;;;1.90;;
50126;SDS011;36024;47.974;16.398;2022-08-21T07:22:45;2.00;;;1.90;;
50126;SDS011;36024;47.974;16.398;2022-08-21T07:25:11;1.83;;;1.73;;
50126;SDS011;36024;47.974;16.398;2022-08-21T07:27:38;2.13;;;1.90;;
50126;SDS011;36024;47.974;16.398;2022-08-21T07:30:05;2.17;;;2.07;;
50126;SDS011;36024;47.974;16.398;2022-08-21T07:32:32;1.97;;;1.87;;
50126;SDS011;36024;47.974;16.398;2022-08-21T07:34:59;2.00;;;1.90;;
50126;SDS011;36024;47.974;16.398;2022-08-21T07:37:25;2.10;;;2.00;;
50126;SDS011;36024;47.974;16.398;2022-08-21T07:39:52;2.17;;;2.07;;
50126;SDS011;36024;47.974;16.398;2022-08-21T07:42:19;2.37;;;2.17;;
50126;SDS011;36024;47.974;16.398;2022-08-21T07:44:45;2.30;;;2.20;;
50126;SDS011;36024;47.974;16.398;2022-08-21T07:47:14;2.30;;;2.10;;
50126;SDS011;36024;47.974;16.398;2022-08-21T07:50:01;2.00;;;1.90;;
50126;SDS011;36024;47.974;16.398;2022-08-21T07:52:30;2.53;;;2.40;;
50126;SDS011;36024;47.974;16.398;2022-08-21T07:54:58;2.20;;;2.10;;
50126;SDS011;36024;47.974;16.398;2022-08-21T07:57:31;2.20;;;2.10;;
50126;SDS011;36024;47.974;16.398;2022-08-21T07:59:58;2.07;;;1.97;;
50126;SDS011;36024;47.974;16.398;2022-08-21T08:02:25;2.10;;;2.00;;
50126;SDS011;36024;47.974;16.398;2022-08-21T08:04:53;1.80;;;1.70;;
50126;SDS011;36024;47.974;16.398;2022-08-21T08:07:20;2.00;;;1.90;;
50126;SDS011;36024;47.974;16.398;2022-08-21T08:09:46;2.03;;;1.87;;
50126;SDS011;36024;47.974;16.398;2022-08-21T08:12:13;2.07;;;1.67;;
50126;SDS011;36024;47.974;16.398;2022-08-21T08:14:40;1.70;;;1.60;;
50126;SDS011;36024;47.974;16.398;2022-08-21T08:17:06;1.97;;;1.77;;
50126;SDS011;36024;47.974;16.398;2022-08-21T08:19:33;1.70;;;1.60;;
50126;SDS011;36024;47.974;16.398;2022-08-21T08:21:59;1.67;;;1.57;;
50126;SDS011;36024;47.974;16.398;2022-08-21T08:24:26;1.80;;;1.70;;
50126;SDS011;36024;47.974;16.398;2022-08-21T08:26:53;1.83;;;1.73;;
50126;SDS011;36024;47.974;16.398;2022-08-21T08:29:21;1.53;;;1.43;;
50126;SDS011;36024;47.974;16.398;2022-08-21T08:31:48;1.60;;;1.50;;
50126;SDS011;36024;47.974;16.398;2022-08-21T08:34:16;1.70;;;1.60;;
50126;SDS011;36024;47.974;16.398;2022-08-21T08:36:50;1.63;;;1.53;;
50126;SDS011;36024;47.974;16.398;2022-08-21T08:39:17;1.67;;;1.57;;
50126;SDS011;36024;47.974;16.398;2022-08-21T08:42:35;1.40;;;1.40;;
50126;SDS011;36024;47.974;16.398;2022-08-21T08:45:04;1.80;;;1.70;;
50126;SDS011;36024;47.974;16.398;2022-08-21T08:47:42;1.90;;;1.80;;
50126;SDS011;36024;47.974;16.398;2022-08-21T08:50:22;1.80;;;1.70;;
50126;SDS011;36024;47.974;16.398;2022-08-21T08:52:54;1.70;;;1.60;;
50126;SDS011;36024;47.974;16.398;2022-08-21T08:55:26;1.90;;;1.80;;
50126;SDS011;36024;47.974;16.398;2022-08-21T08:57:58;1.90;;;1.80;;
50126;SDS011;36024;47.974;16.398;2022-08-21T09:00:25;2.20;;;2.10;;
50126;SDS011;36024;47.974;16.398;2022-08-21T09:02:52;2.27;;;2.17;;
50126;SDS011;36024;47.974;16.398;2022-08-21T09:05:29;1.90;;;1.80;;
50126;SDS011;36024;47.974;16.398;2022-08-21T09:11:29;1.77;;;1.67;;
50126;SDS011;36024;47.974;16.398;2022-08-21T09:13:55;1.80;;;1.70;;
50126;SDS011;36024;47.974;16.398;2022-08-21T09:17:14;2.00;;;1.90;;
50126;SDS011;36024;47.974;16.398;2022-08-21T09:22:48;1.80;;;1.70;;
50126;SDS011;36024;47.974;16.398;2022-08-21T09:25:31;1.73;;;1.63;;
50126;SDS011;36024;47.974;16.398;2022-08-21T09:27:59;1.75;;;1.65;;
50126;SDS011;36024;47.974;16.398;2022-08-21T09:30:28;1.60;;;1.50;;
50126;SDS011;36024;47.974;16.398;2022-08-21T09:32:56;1.50;;;1.40;;
50126;SDS011;36024;47.974;16.398;2022-08-21T09:35:24;1.50;;;1.40;;
50126;SDS011;36024;47.974;16.398;2022-08-21T09:40:36;1.40;;;1.40;;
50126;SDS011;36024;47.974;16.398;2022-08-21T09:45:38;1.10;;;1.10;;
50126;SDS011;36024;47.974;16.398;2022-08-21T09:48:15;1.05;;;1.05;;
50126;SDS011;36024;47.974;16.398;2022-08-21T09:50:45;1.15;;;1.15;;
50126;SDS011;36024;47.974;16.398;2022-08-21T09:53:18;1.00;;;1.00;;
50126;SDS011;36024;47.974;16.398;2022-08-21T09:56:04;1.35;;;0.98;;
50126;SDS011;36024;47.974;16.398;2022-08-21T09:58:59;0.93;;;0.93;;
50126;SDS011;36024;47.974;16.398;2022-08-21T10:01:26;1.50;;;0.90;;
50126;SDS011;36024;47.974;16.398;2022-08-21T10:04:03;1.00;;;1.00;;
50126;SDS011;36024;47.974;16.398;2022-08-21T10:06:31;1.10;;;1.00;;
50126;SDS011;36024;47.974;16.398;2022-08-21T10:09:09;1.15;;;0.90;;
50126;SDS011;36024;47.974;16.398;2022-08-21T10:11:49;1.02;;;1.00;;
50126;SDS011;36024;47.974;16.398;2022-08-21T10:22:47;0.85;;;0.85;;
50126;SDS011;36024;47.974;16.398;2022-08-21T10:25:21;0.93;;;0.93;;
50126;SDS011;36024;47.974;16.398;2022-08-21T10:28:21;1.02;;;1.02;;
50126;SDS011;36024;47.974;16.398;2022-08-21T10:31:00;1.10;;;1.10;;
50126;SDS011;36024;47.974;16.398;2022-08-21T10:33:38;1.00;;;1.00;;
50126;SDS011;36024;47.974;16.398;2022-08-21T10:44:35;1.23;;;1.17;;
50126;SDS011;36024;47.974;16.398;2022-08-21T10:47:10;1.17;;;1.17;;
50126;SDS011;36024;47.974;16.398;2022-08-21T10:52:42;1.23;;;1.20;;
50126;SDS011;36024;47.974;16.398;2022-08-21T10:55:17;1.27;;;1.10;;
50126;SDS011;36024;47.974;16.398;2022-08-21T10:57:51;1.37;;;1.27;;
50126;SDS011;36024;47.974;16.398;2022-08-21T11:00:29;1.33;;;1.30;;
50126;SDS011;36024;47.974;16.398;2022-08-21T11:03:21;1.40;;;1.30;;
50126;SDS011;36024;47.974;16.398;2022-08-21T11:05:53;1.20;;;1.20;;
50126;SDS011;36024;47.974;16.398;2022-08-21T11:08:33;1.20;;;1.20;;
50126;SDS011;36024;47.974;16.398;2022-08-21T11:11:10;1.30;;;1.30;;
50126;SDS011;36024;47.974;16.398;2022-08-21T11:13:47;1.40;;;1.40;;
50126;SDS011;36024;47.974;16.398;2022-08-21T11:19:04;1.33;;;1.30;;
50126;SDS011;36024;47.974;16.398;2022-08-21T11:21:37;1.60;;;1.50;;
50126;SDS011;36024;47.974;16.398;2022-08-21T11:24:33;1.50;;;1.40;;
50126;SDS011;36024;47.974;16.398;2022-08-21T11:29:41;1.63;;;1.40;;
50126;SDS011;36024;47.974;16.398;2022-08-21T11:45:51;0.90;;;0.90;;
50126;SDS011;36024;47.974;16.398;2022-08-21T11:51:04;0.60;;;0.60;;
50126;SDS011;36024;47.974;16.398;2022-08-21T11:53:38;0.80;;;0.73;;
50126;SDS011;36024;47.974;16.398;2022-08-21T11:56:11;0.50;;;0.50;;
50126;SDS011;36024;47.974;16.398;2022-08-21T11:58:41;0.60;;;0.60;;
50126;SDS011;36024;47.974;16.398;2022-08-21T12:01:16;0.45;;;0.45;;
50126;SDS011;36024;47.974;16.398;2022-08-21T12:07:08;0.50;;;0.50;;
50126;SDS011;36024;47.974;16.398;2022-08-21T12:09:37;0.50;;;0.50;;
50126;SDS011;36024;47.974;16.398;2022-08-21T12:12:11;0.60;;;0.60;;
50126;SDS011;36024;47.974;16.398;2022-08-21T12:14:49;1.05;;;0.70;;
50126;SDS011;36024;47.974;16.398;2022-08-21T12:17:24;0.77;;;0.77;;
50126;SDS011;36024;47.974;16.398;2022-08-21T12:22:49;1.08;;;0.70;;
50126;SDS011;36024;47.974;16.398;2022-08-21T12:25:21;0.70;;;0.70;;
50126;SDS011;36024;47.974;16.398;2022-08-21T12:27:53;2.90;;;0.70;;
50126;SDS011;36024;47.974;16.398;2022-08-21T12:32:57;0.70;;;0.70;;
50126;SDS011;36024;47.974;16.398;2022-08-21T12:35:35;0.70;;;0.70;;
50126;SDS011;36024;47.974;16.398;2022-08-21T12:38:15;0.80;;;0.80;;
50126;SDS011;36024;47.974;16.398;2022-08-21T12:40:52;1.35;;;0.90;;
50126;SDS011;36024;47.974;16.398;2022-08-21T12:43:29;1.52;;;0.80;;
50126;SDS011;36024;47.974;16.398;2022-08-21T12:45:57;0.85;;;0.80;;
50126;SDS011;36024;47.974;16.398;2022-08-21T12:48:29;1.00;;;0.90;;
50126;SDS011;36024;47.974;16.398;2022-08-21T12:51:08;1.80;;;0.90;;
50126;SDS011;36024;47.974;16.398;2022-08-21T12:53:56;1.07;;;0.80;;
50126;SDS011;36024;47.974;16.398;2022-08-21T12:56:25;1.13;;;0.90;;
50126;SDS011;36024;47.974;16.398;2022-08-21T12:58:57;0.80;;;0.80;;
50126;SDS011;36024;47.974;16.398;2022-08-21T13:04:07;0.80;;;0.73;;
50126;SDS011;36024;47.974;16.398;2022-08-21T13:06:37;1.03;;;0.80;;
50126;SDS011;36024;47.974;16.398;2022-08-21T13:09:07;1.03;;;1.00;;
50126;SDS011;36024;47.974;16.398;2022-08-21T13:11:37;1.20;;;1.10;;
50126;SDS011;36024;47.974;16.398;2022-08-21T13:14:08;1.07;;;1.03;;
50126;SDS011;36024;47.974;16.398;2022-08-21T13:16:53;1.20;;;1.20;;
50126;SDS011;36024;47.974;16.398;2022-08-21T13:19:21;1.20;;;1.10;;
50126;SDS011;36024;47.974;16.398;2022-08-21T13:21:49;1.20;;;1.10;;
50126;SDS011;36024;47.974;16.398;2022-08-21T13:24:23;1.40;;;1.30;;
50126;SDS011;36024;47.974;16.398;2022-08-21T13:27:25;1.10;;;1.10;;
50126;SDS011;36024;47.974;16.398;2022-08-21T13:30:13;1.13;;;1.13;;
50126;SDS011;36024;47.974;16.398;2022-08-21T13:32:44;1.23;;;1.13;;
50126;SDS011;36024;47.974;16.398;2022-08-21T13:35:17;1.30;;;1.20;;
50126;SDS011;36024;47.974;16.398;2022-08-21T13:37:47;1.20;;;1.20;;
50126;SDS011;36024;47.974;16.398;2022-08-21T13:40:16;1.10;;;1.10;;
50126;SDS011;36024;47.974;16.398;2022-08-21T13:42:46;1.50;;;1.40;;
50126;SDS011;36024;47.974;16.398;2022-08-21T13:45:21;2.53;;;1.77;;
50126;SDS011;36024;47.974;16.398;2022-08-21T13:47:50;2.17;;;1.43;;
50126;SDS011;36024;47.974;16.398;2022-08-21T13:50:17;1.30;;;1.20;;
50126;SDS011;36024;47.974;16.398;2022-08-21T13:53:04;1.20;;;1.20;;
50126;SDS011;36024;47.974;16.398;2022-08-21T13:55:50;1.20;;;1.20;;
50126;SDS011;36024;47.974;16.398;2022-08-21T13:58:24;1.67;;;1.57;;
50126;SDS011;36024;47.974;16.398;2022-08-21T14:01:00;1.53;;;1.43;;
50126;SDS011;36024;47.974;16.398;2022-08-21T14:03:34;1.73;;;1.63;;
50126;SDS011;36024;47.974;16.398;2022-08-21T14:06:20;1.70;;;1.60;;
50126;SDS011;36024;47.974;16.398;2022-08-21T14:08:53;1.70;;;1.60;;
50126;SDS011;36024;47.974;16.398;2022-08-21T14:11:23;1.83;;;1.70;;
50126;SDS011;36024;47.974;16.398;2022-08-21T14:13:59;2.00;;;1.70;;
50126;SDS011;36024;47.974;16.398;2022-08-21T14:16:45;2.10;;;2.00;;
50126;SDS011;36024;47.974;16.398;2022-08-21T14:27:53;2.73;;;2.47;;
50126;SDS011;36024;47.974;16.398;2022-08-21T14:30:29;3.17;;;2.43;;
50126;SDS011;36024;47.974;16.398;2022-08-21T14:32:57;2.40;;;2.10;;
50126;SDS011;36024;47.974;16.398;2022-08-21T14:35:24;2.20;;;1.93;;
50126;SDS011;36024;47.974;16.398;2022-08-21T14:37:51;2.47;;;2.30;;
50126;SDS011;36024;47.974;16.398;2022-08-21T14:40:18;2.30;;;2.20;;
50126;SDS011;36024;47.974;16.398;2022-08-21T14:42:47;2.50;;;2.30;;
50126;SDS011;36024;47.974;16.398;2022-08-21T14:45:20;3.10;;;2.30;;
50126;SDS011;36024;47.974;16.398;2022-08-21T14:47:53;2.40;;;2.20;;
50126;SDS011;36024;47.974;16.398;2022-08-21T14:50:20;2.33;;;2.13;;
50126;SDS011;36024;47.974;16.398;2022-08-21T14:52:47;2.50;;;2.30;;
50126;SDS011;36024;47.974;16.398;2022-08-21T14:55:15;2.60;;;2.10;;
50126;SDS011;36024;47.974;16.398;2022-08-21T14:57:44;2.50;;;2.30;;
50126;SDS011;36024;47.974;16.398;2022-08-21T15:00:13;3.03;;;2.20;;
50126;SDS011;36024;47.974;16.398;2022-08-21T15:02:43;2.50;;;2.30;;
50126;SDS011;36024;47.974;16.398;2022-08-21T15:05:10;2.67;;;2.33;;
50126;SDS011;36024;47.974;16.398;2022-08-21T15:07:37;2.20;;;2.00;;
50126;SDS011;36024;47.974;16.398;2022-08-21T15:10:06;2.30;;;2.10;;
50126;SDS011;36024;47.974;16.398;2022-08-21T15:12:35;4.17;;;2.63;;
50126;SDS011;36024;47.974;16.398;2022-08-21T15:15:03;4.07;;;2.50;;
50126;SDS011;36024;47.974;16.398;2022-08-21T15:17:31;2.50;;;2.30;;
50126;SDS011;36024;47.974;16.398;2022-08-21T15:19:58;3.03;;;2.73;;
50126;SDS011;36024;47.974;16.398;2022-08-21T15:22:26;2.70;;;2.50;;
50126;SDS011;36024;47.974;16.398;2022-08-21T15:24:53;4.90;;;2.67;;
50126;SDS011;36024;47.974;16.398;2022-08-21T15:27:20;2.43;;;2.23;;
50126;SDS011;36024;47.974;16.398;2022-08-21T15:29:47;3.40;;;2.53;;
50126;SDS011;36024;47.974;16.398;2022-08-21T15:32:24;2.30;;;2.20;;
50126;SDS011;36024;47.974;16.398;2022-08-21T15:34:53;2.43;;;2.13;;
50126;SDS011;36024;47.974;16.398;2022-08-21T15:37:20;3.17;;;2.30;;
50126;SDS011;36024;47.974;16.398;2022-08-21T15:39:48;3.57;;;2.30;;
50126;SDS011;36024;47.974;16.398;2022-08-21T15:42:19;2.57;;;2.37;;
50126;SDS011;36024;47.974;16.398;2022-08-21T15:44:47;2.70;;;2.50;;
50126;SDS011;36024;47.974;16.398;2022-08-21T15:47:15;2.83;;;2.53;;
50126;SDS011;36024;47.974;16.398;2022-08-21T15:49:43;2.87;;;2.53;;
50126;SDS011;36024;47.974;16.398;2022-08-21T15:52:15;3.03;;;2.43;;
50126;SDS011;36024;47.974;16.398;2022-08-21T15:54:42;2.77;;;2.53;;
50126;SDS011;36024;47.974;16.398;2022-08-21T15:57:10;2.60;;;2.40;;
50126;SDS011;36024;47.974;16.398;2022-08-21T15:59:45;2.40;;;2.20;;
50126;SDS011;36024;47.974;16.398;2022-08-21T16:02:24;2.80;;;2.53;;
50126;SDS011;36024;47.974;16.398;2022-08-21T16:04:52;2.50;;;2.30;;
50126;SDS011;36024;47.974;16.398;2022-08-21T16:07:19;2.50;;;2.30;;